Time;durP1;ratioP1;P1;durP2;ratioP2;P2;SDS_P1;SDS_P2;PMS_P1;PMS_P2;Temp;Humidity;BMP_temperature;BMP_pressure;BME280_temperature;BME280_humidity;BME280_pressure;Samples;Min_cycle;Max_cycle;Signal;HPM_P1;HPM_P2
2022/07/08 00:02:02;;;;;;;4.43;2.30;;;;;;;21.07;88.21;100680.56;5016759;28;20038;-87
2022/07/08 00:04:28;;;;;;;6.05;2.33;;;;;;;21.03;88.56;100685.59;5034412;28;20119;-86
2022/07/08 00:06:54;;;;;;;5.72;2.50;;;;;;;21.03;88.83;100690.97;5034581;28;20067;-84
2022/07/08 00:09:20;;;;;;;4.82;2.70;;;;;;;21.10;88.33;100675.56;5034578;28;20033;-84
2022/07/08 00:11:46;;;;;;;11.00;2.80;;;;;;;21.07;88.80;100686.78;5034329;28;20029;-83
2022/07/08 00:14:12;;;;;;;6.47;2.33;;;;;;;21.10;88.39;100680.97;5033924;28;20042;-81
2022/07/08 00:16:43;;;;;;;5.72;2.22;;;;;;;21.11;88.22;100681.78;5034175;28;20030;-85
2022/07/08 00:19:11;;;;;;;5.35;2.63;;;;;;;21.07;88.30;100681.41;5034046;28;20056;-83
2022/07/08 00:21:38;;;;;;;6.10;2.58;;;;;;;20.98;89.13;100676.53;5016074;28;20427;-86
2022/07/08 00:24:05;;;;;;;6.35;2.63;;;;;;;20.90;90.00;100691.13;5033471;28;20117;-87
2022/07/08 00:26:33;;;;;;;10.43;2.58;;;;;;;21.07;88.25;100686.78;5033949;28;20034;-88
2022/07/08 00:28:59;;;;;;;9.13;2.67;;;;;;;21.01;89.14;100693.06;5033448;28;20083;-88
2022/07/08 00:31:28;;;;;;;12.25;3.05;;;;;;;21.13;87.98;100698.56;5000755;28;20135;-86
2022/07/08 00:33:53;;;;;;;5.43;2.10;;;;;;;21.27;86.56;100704.59;5034403;28;20041;-81
2022/07/08 00:36:19;;;;;;;8.32;2.67;;;;;;;21.23;87.28;100706.09;5034599;28;20087;-88
2022/07/08 00:38:44;;;;;;;4.00;1.92;;;;;;;21.42;86.18;100700.44;5015721;28;20463;-90
2022/07/08 00:41:10;;;;;;;4.18;2.50;;;;;;;21.34;86.25;100716.13;5033503;28;20041;-86
2022/07/08 00:43:41;;;;;;;8.23;2.30;;;;;;;21.56;84.67;100706.47;5015591;28;20037;-88
2022/07/08 00:46:07;;;;;;;12.25;2.72;;;;;;;21.42;85.56;100710.41;5032674;28;20065;-83
2022/07/08 00:48:34;;;;;;;10.73;3.10;;;;;;;21.28;86.54;100719.72;5033477;28;20486;-84
2022/07/08 00:51:02;;;;;;;7.35;2.88;;;;;;;21.28;86.99;100720.53;5034885;28;20029;-84
2022/07/08 00:53:30;;;;;;;4.30;2.50;;;;;;;21.31;86.86;100730.06;5016048;28;20069;-86
2022/07/08 00:55:57;;;;;;;4.45;2.30;;;;;;;21.36;86.56;100722.94;5035091;28;20038;-84
2022/07/08 00:58:24;;;;;;;9.32;2.90;;;;;;;21.57;85.19;100718.91;5033218;28;20117;-85
2022/07/08 01:00:51;;;;;;;6.47;2.40;;;;;;;21.58;84.08;100720.53;5033437;28;20119;-81
2022/07/08 01:03:17;;;;;;;5.97;2.70;;;;;;;21.45;85.35;100721.56;5033576;28;20390;-82
2022/07/08 01:05:43;;;;;;;7.82;2.20;;;;;;;21.36;86.11;100722.09;5033259;28;20044;-87
2022/07/08 01:08:08;;;;;;;6.65;2.85;;;;;;;21.41;86.13;100719.56;5032696;28;20140;-86
2022/07/08 01:10:34;;;;;;;9.98;2.53;;;;;;;21.30;87.18;100717.63;5032911;28;20549;-88
2022/07/08 01:13:00;;;;;;;8.35;2.40;;;;;;;21.21;88.15;100713.59;5032958;28;20042;-89
2022/07/08 01:15:25;;;;;;;8.07;3.08;;;;;;;21.20;87.28;100717.34;5033056;28;20117;-89
2022/07/08 01:17:51;;;;;;;9.55;2.60;;;;;;;21.02;88.98;100712.75;5032888;28;20033;-86
2022/07/08 01:20:16;;;;;;;8.65;3.30;;;;;;;20.82;90.40;100723.75;5015200;28;20109;-89
2022/07/08 01:22:42;;;;;;;5.30;2.78;;;;;;;20.89;90.54;100716.41;5032910;28;20029;-86
2022/07/08 01:25:09;;;;;;;7.82;2.70;;;;;;;21.07;89.62;100723.69;5032712;28;20479;-85
2022/07/08 01:27:35;;;;;;;5.88;2.40;;;;;;;21.13;89.69;100718.25;5032744;28;20478;-86
2022/07/08 01:30:02;;;;;;;6.32;2.97;;;;;;;21.20;88.81;100717.34;5032835;28;20042;-84
2022/07/08 01:32:42;;;;;;;17.40;2.70;;;;;;;21.03;89.93;100715.22;5032919;28;20033;-86
2022/07/08 01:35:08;;;;;;;5.93;2.47;;;;;;;20.90;90.86;100723.47;5032699;28;20398;-87
2022/07/08 01:37:34;;;;;;;9.43;2.53;;;;;;;20.91;90.99;100719.69;5032666;28;20095;-86
2022/07/08 01:39:59;;;;;;;4.85;2.67;;;;;;;20.90;91.53;100723.47;5032583;28;20033;-88
2022/07/08 01:42:25;;;;;;;8.27;2.50;;;;;;;20.80;92.35;100725.03;5032435;28;20116;-84
2022/07/08 01:44:50;;;;;;;15.27;2.78;;;;;;;20.62;93.20;100725.81;5032536;28;20044;-87
2022/07/08 01:47:16;;;;;;;8.57;2.38;;;;;;;20.47;94.76;100728.06;5034764;28;20030;-84
2022/07/08 01:49:41;;;;;;;9.23;2.70;;;;;;;20.63;93.52;100732.88;5032466;28;20388;-84
2022/07/08 01:52:08;;;;;;;8.88;2.47;;;;;;;20.67;93.09;100730.56;5032563;28;20034;-85
2022/07/08 01:54:33;;;;;;;3.38;2.35;;;;;;;20.69;93.13;100731.97;5032618;28;20133;-84
2022/07/08 01:57:15;;;;;;;4.03;2.50;;;;;;;20.66;92.76;100735.13;5033154;28;20064;-86
2022/07/08 01:59:41;;;;;;;9.15;2.45;;;;;;;20.58;94.12;100740.81;5036354;28;20037;-85
2022/07/08 02:02:07;;;;;;;5.10;3.00;;;;;;;20.48;94.79;100729.72;5035877;28;20048;-83
2022/07/08 02:04:33;;;;;;;7.47;2.83;;;;;;;20.41;95.13;100740.53;5037149;28;20041;-86
2022/07/08 02:06:58;;;;;;;7.45;2.60;;;;;;;20.29;95.87;100736.06;5038052;28;20030;-85
2022/07/08 02:09:24;;;;;;;4.95;2.78;;;;;;;20.20;96.65;100740.88;5038979;28;20045;-84
2022/07/08 02:14:33;;;;;;;3.30;2.45;;;;;;;20.36;95.65;100736.84;5035958;28;20038;-85
2022/07/08 02:16:59;;;;;;;12.93;2.85;;;;;;;20.32;96.89;100741.00;5035954;28;20368;-85
2022/07/08 02:19:24;;;;;;;7.10;3.70;;;;;;;20.35;96.01;100743.28;5035789;28;20047;-85
2022/07/08 02:21:51;;;;;;;7.65;3.00;;;;;;;20.32;96.29;100741.84;5035584;28;20025;-87
2022/07/08 02:24:16;;;;;;;5.65;2.63;;;;;;;20.42;96.42;100741.34;5035372;28;20037;-87
2022/07/08 02:26:42;;;;;;;11.07;3.47;;;;;;;20.26;96.46;100741.88;5035639;28;20041;-87
2022/07/08 02:29:08;;;;;;;5.90;2.80;;;;;;;20.16;97.43;100741.53;5035224;28;20041;-86
2022/07/08 02:31:35;;;;;;;5.68;2.80;;;;;;;20.19;97.90;100733.84;5035358;28;20028;-85
2022/07/08 02:34:00;;;;;;;5.88;3.42;;;;;;;20.10;97.65;100741.38;5035334;28;20049;-87
2022/07/08 02:36:26;;;;;;;5.53;3.22;;;;;;;20.12;97.99;100735.78;5017595;28;20482;-82
2022/07/08 02:38:52;;;;;;;7.28;3.17;;;;;;;20.17;98.29;100743.19;5035858;28;20390;-84
2022/07/08 02:41:18;;;;;;;10.48;3.10;;;;;;;20.00;99.48;100742.91;5036399;28;20107;-85
2022/07/08 02:43:43;;;;;;;6.07;3.10;;;;;;;19.95;99.78;100730.09;5034921;28;20044;-86
2022/07/08 02:46:09;;;;;;;6.35;3.03;;;;;;;19.99;99.18;100742.06;5035182;28;20112;-84
2022/07/08 02:48:34;;;;;;;3.35;2.58;;;;;;;20.06;99.16;100748.25;5035060;28;20037;-86
2022/07/08 02:51:01;;;;;;;7.22;3.58;;;;;;;20.02;98.63;100747.03;5035023;28;20516;-85
2022/07/08 02:53:26;;;;;;;11.65;3.35;;;;;;;19.97;99.55;100746.88;5035147;28;20032;-83
2022/07/08 02:55:52;;;;;;;12.00;3.50;;;;;;;19.89;99.36;100752.50;5034714;28;20041;-83
2022/07/08 02:58:17;;;;;;;5.63;2.65;;;;;;;19.92;99.55;100752.06;5034989;28;20445;-87
2022/07/08 03:00:43;;;;;;;5.88;3.33;;;;;;;19.85;100.00;100761.22;5034734;28;20486;-87
2022/07/08 03:03:09;;;;;;;5.93;3.00;;;;;;;20.14;97.59;100768.69;5034952;28;20061;-86
2022/07/08 03:05:34;;;;;;;3.92;2.80;;;;;;;20.25;97.02;100761.78;5016972;28;20038;-85
2022/07/08 03:08:00;;;;;;;9.27;2.92;;;;;;;20.22;97.26;100762.22;5035089;28;20033;-87
2022/07/08 03:10:25;;;;;;;7.05;3.17;;;;;;;19.99;98.88;100771.66;5034287;28;20379;-84
2022/07/08 03:12:53;;;;;;;4.43;2.95;;;;;;;19.89;99.27;100771.31;5035621;28;20087;-85
2022/07/08 03:15:22;;;;;;;7.03;3.17;;;;;;;19.73;100.00;100769.16;5037047;28;20026;-86
2022/07/08 03:17:48;;;;;;;6.15;3.05;;;;;;;20.01;98.80;100769.59;5040193;28;20049;-85
2022/07/08 03:20:14;;;;;;;4.97;3.17;;;;;;;20.01;98.82;100775.00;5038546;28;20029;-85
2022/07/08 03:22:39;;;;;;;9.73;3.17;;;;;;;19.88;100.00;100772.38;5036232;28;20090;-87
2022/07/08 03:25:05;;;;;;;8.52;3.28;;;;;;;20.02;99.50;100776.63;5034693;28;20029;-86
2022/07/08 03:27:31;;;;;;;6.55;2.83;;;;;;;20.08;98.47;100783.00;5034805;28;20500;-86
2022/07/08 03:29:56;;;;;;;3.90;2.60;;;;;;;19.71;99.20;100787.38;5034883;28;20530;-85
2022/07/08 03:32:23;;;;;;;10.73;3.25;;;;;;;19.69;99.76;100784.06;5034669;28;20037;-87
2022/07/08 03:34:49;;;;;;;7.85;3.45;;;;;;;19.55;100.00;100782.50;5035143;28;20033;-84
2022/07/08 03:37:15;;;;;;;5.28;3.10;;;;;;;19.49;100.00;100789.53;5034718;28;20043;-85
2022/07/08 03:39:41;;;;;;;8.20;3.10;;;;;;;19.53;100.00;100792.63;5034541;28;20037;-86
2022/07/08 03:42:07;;;;;;;6.53;3.03;;;;;;;19.57;100.00;100791.16;5034969;28;20121;-84
2022/07/08 03:44:32;;;;;;;3.17;2.78;;;;;;;19.48;100.00;100798.66;5034905;28;20041;-88
2022/07/08 03:46:58;;;;;;;5.32;2.60;;;;;;;19.61;99.96;100800.47;5017124;28;20034;-87
2022/07/08 03:49:24;;;;;;;6.18;2.90;;;;;;;19.55;99.98;100794.06;5034835;28;20103;-88
2022/07/08 03:51:49;;;;;;;4.75;2.80;;;;;;;19.80;98.45;100791.47;5034413;28;20029;-83
2022/07/08 03:54:15;;;;;;;6.30;2.78;;;;;;;19.86;97.22;100795.97;5017193;28;20486;-86
2022/07/08 03:56:41;;;;;;;7.40;2.92;;;;;;;19.90;96.97;100797.19;5034818;28;20041;-87
2022/07/08 03:59:06;;;;;;;6.22;2.58;;;;;;;19.84;97.04;100794.53;5034464;28;20495;-84
2022/07/08 04:01:32;;;;;;;4.70;2.92;;;;;;;19.54;98.26;100807.72;5034300;28;20153;-85
2022/07/08 04:03:58;;;;;;;5.28;2.70;;;;;;;19.45;99.96;100799.09;5034601;28;20064;-85
2022/07/08 04:06:23;;;;;;;16.23;3.25;;;;;;;19.48;99.95;100805.91;5033802;28;20033;-85
2022/07/08 04:08:49;;;;;;;7.03;3.20;;;;;;;19.30;100.00;100803.03;5034229;28;20092;-87
2022/07/08 04:11:14;;;;;;;7.50;4.00;;;;;;;19.27;100.00;100819.56;5033816;28;20044;-87
2022/07/08 04:13:40;;;;;;;5.45;2.72;;;;;;;19.56;100.00;100821.78;5033861;28;20087;-83
2022/07/08 04:16:11;;;;;;;4.85;2.85;;;;;;;19.78;99.37;100825.81;5036793;28;20037;-87
2022/07/08 04:18:39;;;;;;;5.80;3.00;;;;;;;19.72;99.44;100829.34;5037126;28;20599;-83
2022/07/08 04:21:06;;;;;;;4.38;2.75;;;;;;;19.89;98.81;100843.13;5035352;28;20053;-87
2022/07/08 04:23:31;;;;;;;8.48;2.72;;;;;;;19.96;96.82;100854.69;5036483;28;20517;-83
2022/07/08 04:25:57;;;;;;;5.30;2.72;;;;;;;19.80;98.25;100853.31;5035235;28;20116;-84
2022/07/08 04:28:23;;;;;;;6.78;2.95;;;;;;;19.89;97.25;100856.59;5036579;28;20037;-83
2022/07/08 04:30:48;;;;;;;11.07;3.15;;;;;;;19.87;97.17;100855.97;5036986;28;20033;-85
2022/07/08 04:33:14;;;;;;;7.93;3.03;;;;;;;19.92;97.50;100859.66;5036171;28;20038;-84
2022/07/08 04:35:39;;;;;;;6.88;3.00;;;;;;;19.97;97.24;100859.88;5035221;28;20033;-85
2022/07/08 04:38:05;;;;;;;7.00;2.83;;;;;;;20.04;96.63;100866.03;5035296;28;20478;-85
2022/07/08 04:40:31;;;;;;;6.82;2.80;;;;;;;20.11;95.75;100864.13;5034199;28;20486;-86
2022/07/08 04:42:57;;;;;;;5.35;2.70;;;;;;;20.25;95.52;100870.25;5035850;28;20037;-85
2022/07/08 04:45:23;;;;;;;11.05;2.95;;;;;;;20.43;93.52;100869.53;5034675;28;20021;-85
2022/07/08 04:47:49;;;;;;;8.45;2.60;;;;;;;20.36;93.29;100877.66;5033402;28;20111;-86
2022/07/08 04:50:16;;;;;;;7.72;3.03;;;;;;;20.57;92.78;100871.09;5033724;28;20026;-87
2022/07/08 04:52:41;;;;;;;14.55;3.38;;;;;;;20.54;92.10;100869.69;5033888;28;20060;-88
2022/07/08 04:55:07;;;;;;;10.52;3.55;;;;;;;20.65;91.30;100865.44;5033864;28;20482;-90
2022/07/08 04:57:33;;;;;;;8.68;3.47;;;;;;;20.77;89.94;100866.38;5034334;28;20033;-87
2022/07/08 05:00:00;;;;;;;11.35;2.97;;;;;;;20.68;91.52;100865.03;5034247;28;20037;-86
2022/07/08 05:02:26;;;;;;;9.02;3.20;;;;;;;20.65;92.06;100870.81;5034456;28;20120;-90
2022/07/08 05:04:52;;;;;;;7.05;2.75;;;;;;;20.50;93.04;100876.53;5033840;28;20053;-85
2022/07/08 05:07:17;;;;;;;8.73;3.30;;;;;;;20.52;92.48;100881.69;5015980;28;20041;-86
2022/07/08 05:09:43;;;;;;;14.75;2.90;;;;;;;20.47;93.36;100884.22;5033517;28;20116;-87
2022/07/08 05:12:09;;;;;;;6.65;3.45;;;;;;;20.25;95.48;100886.38;5033628;28;20033;-90
2022/07/08 05:14:35;;;;;;;11.48;3.08;;;;;;;20.28;96.20;100890.56;5033549;28;20038;-89
2022/07/08 05:17:00;;;;;;;7.40;3.40;;;;;;;20.31;96.15;100892.84;5033449;28;20040;-88
2022/07/08 05:19:25;;;;;;;10.73;3.72;;;;;;;20.41;96.59;100891.31;5033069;28;20041;-88
2022/07/08 05:21:51;;;;;;;5.35;2.97;;;;;;;20.66;95.58;100888.63;5033212;28;20044;-87
2022/07/08 05:24:17;;;;;;;9.05;3.08;;;;;;;20.83;94.22;100888.91;5033065;28;20107;-87
2022/07/08 05:26:42;;;;;;;9.60;3.22;;;;;;;20.98;94.00;100887.53;5032806;28;20037;-88
2022/07/08 05:29:08;;;;;;;10.65;3.10;;;;;;;21.17;93.01;100890.31;5033229;28;20033;-90
2022/07/08 05:31:33;;;;;;;16.27;3.45;;;;;;;21.33;91.68;100892.44;5033102;28;20452;-89
2022/07/08 05:33:59;;;;;;;10.23;3.50;;;;;;;21.51;90.70;100898.63;5037014;28;20064;-88
2022/07/08 05:36:24;;;;;;;12.10;3.15;;;;;;;21.64;89.94;100892.31;5002803;28;20042;-85
2022/07/08 05:38:50;;;;;;;7.97;3.40;;;;;;;21.67;90.49;100894.53;5037451;28;20475;-87
2022/07/08 05:41:16;;;;;;;6.68;3.58;;;;;;;21.74;90.59;100886.38;5037050;28;20029;-87
2022/07/08 05:43:41;;;;;;;9.70;3.67;;;;;;;21.90;90.43;100894.72;5037135;28;20037;-86
2022/07/08 05:46:07;;;;;;;7.65;3.70;;;;;;;22.07;89.47;100898.41;5019216;28;20034;-87
2022/07/08 05:48:32;;;;;;;10.85;4.18;;;;;;;22.23;89.58;100902.34;5036695;28;20494;-87
2022/07/08 05:50:58;;;;;;;16.23;4.05;;;;;;;22.38;87.89;100910.03;5036693;28;20034;-88
2022/07/08 05:53:23;;;;;;;16.60;4.22;;;;;;;22.58;87.60;100905.16;5036681;28;20386;-90
2022/07/08 05:55:49;;;;;;;6.68;3.92;;;;;;;22.72;86.75;100909.34;5019283;28;20045;-86
2022/07/08 05:58:14;;;;;;;16.42;5.72;;;;;;;22.71;88.17;100904.97;5036679;28;20037;-88
2022/07/08 06:00:40;;;;;;;11.52;5.70;;;;;;;22.64;88.24;100896.13;5036662;28;20437;-88
2022/07/08 06:03:06;;;;;;;10.77;6.20;;;;;;;22.60;88.47;100903.88;5037043;28;20044;-90
2022/07/08 06:05:32;;;;;;;10.65;5.43;;;;;;;23.02;87.56;100904.69;5023662;28;20475;-87
2022/07/08 06:07:58;;;;;;;12.95;5.40;;;;;;;23.27;84.35;100900.94;5041796;28;20034;-86
2022/07/08 06:10:26;;;;;;;19.02;4.80;;;;;;;23.70;81.85;100909.47;5055725;28;20037;-83
2022/07/08 06:12:53;;;;;;;10.30;4.03;;;;;;;24.00;78.92;100910.09;5058730;28;20041;-84
2022/07/08 06:15:19;;;;;;;12.75;4.30;;;;;;;24.39;76.93;100913.03;5058997;28;20013;-83
2022/07/08 06:17:45;;;;;;;14.43;4.65;;;;;;;24.50;75.75;100906.72;5059004;28;20079;-86
2022/07/08 06:20:13;;;;;;;12.90;4.30;;;;;;;24.37;75.42;100913.28;5043396;28;20041;-84
2022/07/08 06:22:38;;;;;;;8.80;3.70;;;;;;;24.77;73.02;100905.03;5047250;28;20068;-88
2022/07/08 06:25:04;;;;;;;9.43;3.45;;;;;;;24.75;72.79;100911.78;5036903;28;20475;-91
2022/07/08 06:27:30;;;;;;;8.50;4.20;;;;;;;25.11;70.27;100905.88;5037038;28;20069;-92
2022/07/08 06:29:55;;;;;;;12.63;3.70;;;;;;;25.86;66.38;100913.44;5037276;28;20076;-91
2022/07/08 06:32:20;;;;;;;9.05;3.17;;;;;;;25.64;68.16;100910.72;5037003;28;20033;-90
2022/07/08 06:34:46;;;;;;;13.75;3.88;;;;;;;26.13;66.37;100922.47;5019112;28;20033;-91
2022/07/08 06:37:12;;;;;;;16.48;3.97;;;;;;;25.92;66.47;100907.00;5036751;28;20038;-87
2022/07/08 06:39:38;;;;;;;12.15;3.45;;;;;;;27.14;60.43;100916.13;5036748;28;20062;-88
2022/07/08 06:42:04;;;;;;;8.20;2.83;;;;;;;27.65;60.06;100910.97;5036606;28;20072;-91
2022/07/08 06:44:34;;;;;;;13.95;3.05;;;;;;;28.05;57.06;100919.31;5036626;28;20404;-90
2022/07/08 06:46:59;;;;;;;14.98;2.90;;;;;;;27.26;59.67;100918.63;5040798;28;20038;-93
2022/07/08 06:49:25;;;;;;;10.85;2.92;;;;;;;27.65;58.18;100906.34;5062500;22;20513;-90
2022/07/08 06:51:51;;;;;;;8.50;2.80;;;;;;;27.40;58.77;100919.00;5018907;28;20040;-92
2022/07/08 06:54:35;;;;;;;15.32;3.30;;;;;;;27.17;61.09;100915.59;5034125;28;20045;-87
2022/07/08 06:57:02;;;;;;;10.10;2.38;;;;;;;26.96;60.77;100921.97;4998157;28;20495;-87
2022/07/08 06:59:28;;;;;;;7.93;2.55;;;;;;;27.08;60.11;100925.31;5015757;28;20062;-86
2022/07/08 07:01:54;;;;;;;5.97;2.35;;;;;;;27.13;60.41;100927.25;5016020;28;20041;-86
2022/07/08 07:04:19;;;;;;;6.95;2.28;;;;;;;27.36;59.65;100928.75;5032134;28;20033;-87
2022/07/08 07:06:45;;;;;;;8.07;2.40;;;;;;;27.85;58.19;100923.88;5035949;28;20034;-89
2022/07/08 07:09:10;;;;;;;10.77;2.80;;;;;;;27.96;56.25;100923.66;5035668;28;20036;-89
2022/07/08 07:11:38;;;;;;;9.30;2.80;;;;;;;28.04;55.75;100923.13;5035467;28;20063;-89
2022/07/08 07:14:04;;;;;;;7.00;2.22;;;;;;;27.72;57.91;100925.19;5017674;28;20041;-87
2022/07/08 07:16:29;;;;;;;12.02;2.53;;;;;;;29.07;52.24;100928.47;5035321;28;20028;-89
2022/07/08 07:18:55;;;;;;;10.80;2.65;;;;;;;28.40;55.01;100934.16;5036072;28;20038;-86
2022/07/08 07:21:20;;;;;;;9.07;2.03;;;;;;;28.84;52.51;100935.31;5035601;28;20060;-90
2022/07/08 07:23:46;;;;;;;13.15;2.65;;;;;;;28.05;55.86;100932.94;5017199;28;20029;-88
2022/07/08 07:26:11;;;;;;;8.52;2.38;;;;;;;28.69;53.63;100938.06;5000328;28;20140;-86
2022/07/08 07:28:37;;;;;;;10.05;2.40;;;;;;;28.51;54.16;100935.81;5034833;28;20033;-84
2022/07/08 07:31:03;;;;;;;10.75;2.40;;;;;;;28.17;55.36;100930.81;5035073;28;20064;-87
2022/07/08 07:33:28;;;;;;;10.05;2.45;;;;;;;28.41;54.69;100935.78;5035785;28;20037;-87
2022/07/08 07:35:55;;;;;;;7.93;2.38;;;;;;;28.06;54.84;100934.63;5034686;28;20041;-89
2022/07/08 07:38:21;;;;;;;12.80;2.78;;;;;;;28.23;54.87;100932.50;5035852;28;20025;-85
2022/07/08 07:40:47;;;;;;;10.55;2.08;;;;;;;28.69;53.15;100935.31;5049857;28;20030;-87
2022/07/08 07:43:12;;;;;;;8.85;2.40;;;;;;;28.29;54.91;100933.31;5035421;28;20061;-85
2022/07/08 07:45:38;;;;;;;9.57;2.33;;;;;;;28.99;52.39;100940.78;5034649;28;20029;-89
2022/07/08 07:48:03;;;;;;;16.55;2.60;;;;;;;28.97;52.07;100931.25;5034470;28;20044;-83
2022/07/08 07:50:29;;;;;;;9.02;2.22;;;;;;;29.08;50.61;100933.69;5034542;28;20169;-86
2022/07/08 07:52:54;;;;;;;10.75;2.15;;;;;;;29.59;49.38;100934.44;5016984;28;20479;-86
2022/07/08 07:55:20;;;;;;;8.98;2.10;;;;;;;29.41;50.08;100928.75;5034053;28;20117;-85
2022/07/08 07:57:46;;;;;;;4.90;1.90;;;;;;;29.59;48.34;100931.72;5034587;28;20380;-86
2022/07/08 08:00:13;;;;;;;17.23;1.80;;;;;;;29.91;47.84;100933.25;5034022;28;20048;-86
2022/07/08 08:02:39;;;;;;;15.60;1.95;;;;;;;30.00;46.46;100942.50;5034318;28;20034;-88
2022/07/08 08:05:05;;;;;;;16.48;1.95;;;;;;;29.99;47.09;100947.16;5033599;28;20041;-84
2022/07/08 08:07:31;;;;;;;7.07;1.60;;;;;;;29.50;49.23;100948.94;5033646;28;20104;-88
2022/07/08 08:09:57;;;;;;;8.15;2.10;;;;;;;29.62;48.61;100947.53;5021629;28;20164;-89
2022/07/08 08:12:22;;;;;;;7.68;2.10;;;;;;;30.66;45.74;100957.44;5033369;28;20108;-87
2022/07/08 08:14:48;;;;;;;10.00;1.90;;;;;;;31.09;44.67;100950.28;5033152;28;20135;-87
2022/07/08 08:17:16;;;;;;;11.60;2.55;;;;;;;31.17;44.62;100957.88;5034074;28;20037;-85
2022/07/08 08:19:42;;;;;;;11.40;2.20;;;;;;;30.47;46.42;100947.47;5033618;28;20041;-85
2022/07/08 08:22:07;;;;;;;11.63;2.10;;;;;;;30.12;47.54;100952.03;5034011;28;20529;-85
2022/07/08 08:24:33;;;;;;;11.43;1.85;;;;;;;31.24;44.50;100963.84;5015856;28;20041;-85
2022/07/08 08:27:01;;;;;;;8.40;1.67;;;;;;;30.92;45.38;100960.81;5034435;28;20092;-83
2022/07/08 08:29:27;;;;;;;9.98;1.80;;;;;;;30.74;45.66;100966.97;5032140;28;20064;-84
2022/07/08 08:31:52;;;;;;;10.35;2.00;;;;;;;31.31;44.15;100966.25;5033571;28;20060;-83
2022/07/08 08:34:18;;;;;;;6.68;1.90;;;;;;;30.86;45.48;100970.16;5032778;28;20804;-88
2022/07/08 08:36:45;;;;;;;8.63;2.00;;;;;;;30.94;45.17;100969.56;5021525;28;20041;-88
2022/07/08 08:39:10;;;;;;;7.93;1.75;;;;;;;31.45;44.39;100969.13;5053971;28;20041;-86
2022/07/08 08:41:38;;;;;;;8.05;1.70;;;;;;;31.74;43.39;100972.66;5040866;28;20040;-86
2022/07/08 08:44:03;;;;;;;8.57;1.50;;;;;;;32.00;42.35;100971.25;5016052;28;20122;-90
2022/07/08 08:46:31;;;;;;;10.98;1.25;;;;;;;32.05;41.40;100968.47;5033125;28;20449;-85
2022/07/08 08:48:57;;;;;;;7.57;1.73;;;;;;;31.41;42.39;100968.06;5033264;28;20060;-87
2022/07/08 08:51:23;;;;;;;10.02;1.60;;;;;;;31.08;43.35;100973.31;5015595;28;20040;-89
2022/07/08 08:53:53;;;;;;;7.75;1.67;;;;;;;31.17;43.42;100963.38;5033250;28;20061;-85
2022/07/08 08:56:20;;;;;;;5.13;1.52;;;;;;;30.61;44.70;100970.34;5032724;28;20049;-84
2022/07/08 08:58:47;;;;;;;9.05;1.60;;;;;;;30.88;44.21;100964.41;5029938;28;20042;-88
2022/07/08 09:01:14;;;;;;;8.95;1.30;;;;;;;31.41;43.47;100968.06;5052695;28;20033;-88
2022/07/08 09:03:41;;;;;;;17.80;2.15;;;;;;;32.07;41.70;100963.53;5035196;28;20094;-85
2022/07/08 09:06:07;;;;;;;7.75;2.13;;;;;;;32.23;41.37;100964.13;5034704;28;20385;-85
2022/07/08 09:08:33;;;;;;;8.52;1.98;;;;;;;31.70;42.72;100972.44;5052340;28;20091;-85
2022/07/08 09:10:59;;;;;;;11.82;2.92;;;;;;;31.65;43.21;100969.75;5035144;28;20029;-86
2022/07/08 09:13:25;;;;;;;5.38;2.10;;;;;;;31.56;43.75;100959.72;5052806;28;20486;-87
2022/07/08 09:15:57;;;;;;;8.73;1.90;;;;;;;31.56;42.88;100965.19;5053007;28;20029;-85
2022/07/08 09:18:40;;;;;;;4.95;1.80;;;;;;;31.52;42.71;100958.69;5052617;28;20048;-84
2022/07/08 09:21:07;;;;;;;9.82;1.60;;;;;;;31.70;41.60;100955.16;5035295;28;20036;-87
2022/07/08 09:23:38;;;;;;;6.15;1.50;;;;;;;31.69;42.16;100953.53;5052930;28;20379;-88
2022/07/08 09:26:09;;;;;;;8.55;2.80;;;;;;;31.53;41.24;100952.06;5053743;28;20040;-84
2022/07/08 09:28:36;;;;;;;7.80;1.42;;;;;;;31.04;41.85;100963.22;5029231;28;20040;-85
2022/07/08 09:31:12;;;;;;;9.02;1.52;;;;;;;31.18;40.58;100964.19;5016742;28;20037;-89
2022/07/08 09:33:38;;;;;;;10.30;1.58;;;;;;;30.95;41.87;100953.94;5013769;28;20465;-86
2022/07/08 09:36:06;;;;;;;7.13;1.10;;;;;;;31.57;39.94;100950.38;5013391;28;20038;-87
2022/07/08 09:38:37;;;;;;;10.50;1.90;;;;;;;32.07;39.86;100944.31;5013051;28;20034;-86
2022/07/08 09:41:05;;;;;;;3.93;1.63;;;;;;;31.89;39.95;100953.28;5013329;28;20042;-85
2022/07/08 09:43:32;;;;;;;6.65;1.33;;;;;;;32.06;37.94;100944.59;5034847;28;20308;-86
2022/07/08 09:46:05;;;;;;;6.13;1.30;;;;;;;32.05;38.92;100937.50;5012588;28;20073;-86
2022/07/08 09:48:31;;;;;;;12.45;1.35;;;;;;;32.09;39.68;100928.38;5015509;28;20033;-87
2022/07/08 09:50:59;;;;;;;8.05;1.80;;;;;;;32.32;39.54;100942.34;5030697;28;20368;-86
2022/07/08 09:53:27;;;;;;;5.80;1.40;;;;;;;31.63;41.48;100938.25;5032179;28;20034;-88
2022/07/08 09:55:54;;;;;;;5.50;1.40;;;;;;;31.35;41.99;100930.88;5032650;28;20038;-86
2022/07/08 09:58:23;;;;;;;8.65;1.45;;;;;;;31.23;42.38;100934.81;5032189;28;20178;-86
2022/07/08 10:00:53;;;;;;;7.13;1.42;;;;;;;30.74;42.50;100928.66;5032084;28;20040;-85
2022/07/08 10:03:20;;;;;;;7.85;1.08;;;;;;;31.29;41.14;100924.63;5032704;28;20363;-84
2022/07/08 10:05:46;;;;;;;7.72;1.58;;;;;;;30.57;42.85;100930.97;5033964;28;20037;-88
2022/07/08 10:08:13;;;;;;;6.30;1.10;;;;;;;30.46;43.34;100916.53;5008663;28;20042;-88
2022/07/08 10:10:42;;;;;;;12.65;1.35;;;;;;;30.33;42.19;100919.09;5016444;28;20041;-85
2022/07/08 10:13:08;;;;;;;5.03;1.17;;;;;;;30.58;40.95;100916.19;5036167;28;20061;-86
2022/07/08 10:15:35;;;;;;;4.20;0.95;;;;;;;31.11;38.69;100926.19;5033073;28;20449;-86
2022/07/08 10:18:16;;;;;;;5.88;1.05;;;;;;;31.42;38.32;100914.91;5022270;28;20034;-85
2022/07/08 10:20:47;;;;;;;3.97;0.85;;;;;;;30.58;39.90;100913.47;5021663;28;20104;-85
2022/07/08 10:23:22;;;;;;;5.38;0.80;;;;;;;30.88;37.79;100921.44;5024268;28;20033;-85
2022/07/08 10:25:49;;;;;;;3.97;0.80;;;;;;;31.43;36.16;100905.56;5017764;28;20026;-84
2022/07/08 10:28:14;;;;;;;5.35;1.30;;;;;;;32.20;36.97;100915.34;5037022;28;20127;-85
2022/07/08 10:30:51;;;;;;;2.95;1.00;;;;;;;31.90;37.46;100918.47;5037167;28;20061;-86
2022/07/08 10:33:27;;;;;;;5.18;0.93;;;;;;;32.10;35.86;100919.03;5037629;28;20033;-85
2022/07/08 10:36:07;;;;;;;3.80;0.80;;;;;;;32.25;33.57;100913.34;5040584;28;20045;-87
2022/07/08 10:38:35;;;;;;;4.03;0.70;;;;;;;32.44;33.40;100913.34;5017984;28;20042;-86
2022/07/08 10:41:07;;;;;;;3.08;0.63;;;;;;;33.31;32.70;100912.75;5017278;28;20380;-85
2022/07/08 10:43:33;;;;;;;8.95;1.05;;;;;;;33.37;31.81;100914.25;5035008;28;20044;-84
2022/07/08 10:46:16;;;;;;;4.00;1.00;;;;;;;33.72;31.37;100910.81;5034777;28;20099;-85
2022/07/08 10:48:43;;;;;;;6.10;2.30;;;;;;;33.28;32.60;100920.44;5035577;28;20091;-86
2022/07/08 10:51:17;;;;;;;4.45;0.70;;;;;;;33.43;31.44;100921.28;5034946;28;20374;-85
2022/07/08 10:53:52;;;;;;;5.15;0.95;;;;;;;33.44;28.95;100917.44;5034573;28;20037;-86
2022/07/08 10:56:53;;;;;;;3.53;0.80;;;;;;;33.38;30.09;100911.19;5034741;28;20451;-84
2022/07/08 10:59:32;;;;;;;16.65;3.70;;;;;;;33.73;29.52;100912.47;5014427;28;20065;-86
2022/07/08 11:02:16;;;;;;;14.40;2.35;;;;;;;33.69;26.78;100917.75;5014530;28;20559;-86
2022/07/08 11:04:47;;;;;;;8.35;1.17;;;;;;;34.00;28.83;100904.19;5014566;28;20137;-85
2022/07/08 11:07:28;;;;;;;1.83;0.45;;;;;;;34.62;25.77;100910.75;5014425;28;20472;-83
2022/07/08 11:10:05;;;;;;;4.88;0.60;;;;;;;34.09;26.61;100912.50;4997070;28;20087;-82
2022/07/08 11:12:36;;;;;;;23.25;2.67;;;;;;;33.98;27.48;100906.41;5034244;28;20030;-87
2022/07/08 11:15:06;;;;;;;2.83;0.80;;;;;;;33.45;24.50;100914.34;5034579;28;20037;-86
2022/07/08 11:17:35;;;;;;;5.85;0.40;;;;;;;32.93;25.25;100904.59;5039364;28;20040;-87
2022/07/08 11:20:10;;;;;;;2.22;0.70;;;;;;;32.80;27.10;100897.13;5035075;28;20398;-86
2022/07/08 11:22:40;;;;;;;3.60;0.70;;;;;;;32.80;28.36;100899.88;5034579;28;20088;-87
2022/07/08 11:25:13;;;;;;;4.53;0.70;;;;;;;33.15;27.96;100899.28;5034032;28;20048;-85